Time;durP1;ratioP1;P1;durP2;ratioP2;P2;SDS_P1;SDS_P2;PMS_P1;PMS_P2;Temp;Humidity;BMP_temperature;BMP_pressure;BME280_temperature;BME280_humidity;BME280_pressure;Samples;Min_cycle;Max_cycle;Signal;HPM_P1;HPM_P2
2022/10/13 00:01:26;;;;;;;6.97;3.10;;;8.90;92.00;;;;;;4975226;28;20038;-72
2022/10/13 00:03:53;;;;;;;8.57;2.58;;;8.80;91.90;;;;;;4976656;28;20493;-73
2022/10/13 00:06:21;;;;;;;4.93;2.90;;;8.80;91.90;;;;;;4975736;28;20510;-73
2022/10/13 00:08:47;;;;;;;7.20;3.47;;;8.80;92.10;;;;;;4966065;28;20814;-71
2022/10/13 00:11:15;;;;;;;8.35;3.00;;;8.80;92.10;;;;;;4972158;28;20045;-73
2022/10/13 00:13:42;;;;;;;7.57;3.60;;;8.80;91.90;;;;;;4971071;28;20202;-73
2022/10/13 00:16:09;;;;;;;9.07;3.35;;;8.70;91.80;;;;;;4968103;28;20043;-72
2022/10/13 00:18:35;;;;;;;6.50;3.05;;;8.70;91.80;;;;;;4974845;28;20035;-73
2022/10/13 00:21:09;;;;;;;8.30;3.58;;;8.60;91.90;;;;;;4968425;28;20035;-72
2022/10/13 00:23:35;;;;;;;6.47;3.10;;;8.60;92.10;;;;;;4959661;28;20035;-73
2022/10/13 00:26:04;;;;;;;7.88;3.85;;;8.60;92.20;;;;;;4974822;28;20086;-73
2022/10/13 00:28:30;;;;;;;6.43;3.60;;;8.60;92.30;;;;;;4972538;28;20053;-73
2022/10/13 00:30:56;;;;;;;8.90;3.42;;;8.60;92.40;;;;;;4967796;28;20034;-72
2022/10/13 00:33:22;;;;;;;9.45;3.50;;;8.60;92.50;;;;;;4973248;28;20375;-73
2022/10/13 00:35:48;;;;;;;5.75;3.10;;;8.60;92.50;;;;;;4974130;28;20070;-73
2022/10/13 00:38:18;;;;;;;7.40;3.72;;;8.60;92.60;;;;;;4969444;28;20038;-73
2022/10/13 00:40:50;;;;;;;7.40;3.67;;;8.60;92.70;;;;;;4955361;28;20034;-73
2022/10/13 00:43:46;;;;;;;6.40;3.25;;;8.60;92.80;;;;;;4978192;28;20035;-73
2022/10/13 00:46:12;;;;;;;9.15;3.67;;;8.60;92.90;;;;;;4970803;28;20046;-72
2022/10/13 00:48:39;;;;;;;7.57;3.88;;;8.60;93.00;;;;;;4974860;28;20092;-72
2022/10/13 00:51:05;;;;;;;9.85;3.85;;;8.60;93.00;;;;;;4967380;28;20047;-73
2022/10/13 00:53:35;;;;;;;9.93;3.65;;;8.60;93.00;;;;;;4969717;28;20482;-72
2022/10/13 00:56:01;;;;;;;8.30;3.78;;;8.70;93.10;;;;;;4971030;28;20062;-73
2022/10/13 00:58:30;;;;;;;6.82;3.92;;;8.70;93.10;;;;;;4965815;28;20042;-72
2022/10/13 01:00:57;;;;;;;7.70;3.90;;;8.70;93.10;;;;;;4975110;28;20046;-72
2022/10/13 01:03:25;;;;;;;9.30;4.07;;;8.80;93.20;;;;;;4976765;28;20065;-72
2022/10/13 01:05:55;;;;;;;8.27;3.28;;;8.90;93.20;;;;;;4968304;28;20427;-72
2022/10/13 01:08:22;;;;;;;9.38;3.63;;;8.90;93.10;;;;;;4970096;28;20034;-73
2022/10/13 01:10:56;;;;;;;9.32;3.78;;;9.00;93.10;;;;;;4970609;28;20083;-72
2022/10/13 01:13:54;;;;;;;7.35;3.88;;;9.00;93.00;;;;;;4963217;28;20027;-73
2022/10/13 01:16:41;;;;;;;9.07;3.90;;;9.10;93.00;;;;;;4924439;28;20048;-72
2022/10/13 01:19:33;;;;;;;7.97;3.22;;;9.10;92.90;;;;;;4974274;28;20121;-73
2022/10/13 01:22:20;;;;;;;7.57;4.35;;;9.10;92.90;;;;;;4969523;28;20050;-72
2022/10/13 01:25:05;;;;;;;10.27;4.63;;;9.10;92.90;;;;;;4974344;28;20188;-72
2022/10/13 01:28:03;;;;;;;7.55;3.53;;;9.10;92.90;;;;;;4967368;28;20045;-73
2022/10/13 01:30:36;;;;;;;10.10;3.75;;;9.10;92.80;;;;;;4971224;28;20034;-73
2022/10/13 01:33:27;;;;;;;12.20;3.65;;;9.10;93.00;;;;;;4969652;28;20031;-70
2022/10/13 01:36:15;;;;;;;10.50;4.20;;;9.10;93.00;;;;;;4970518;28;20549;-72
2022/10/13 01:39:07;;;;;;;12.00;4.53;;;9.10;93.10;;;;;;4973114;28;20509;-73
2022/10/13 01:41:40;;;;;;;9.90;3.45;;;9.10;93.30;;;;;;4972830;28;20354;-73
2022/10/13 01:44:15;;;;;;;11.65;3.72;;;9.10;93.20;;;;;;4969057;28;20050;-73
2022/10/13 01:46:50;;;;;;;5.80;3.47;;;9.10;93.00;;;;;;4974216;28;20046;-73
2022/10/13 01:49:19;;;;;;;10.65;4.03;;;9.10;93.00;;;;;;4965010;28;20039;-72
2022/10/13 01:51:46;;;;;;;13.85;4.45;;;9.10;93.00;;;;;;4969563;28;20038;-72
2022/10/13 01:54:12;;;;;;;12.50;4.72;;;9.10;92.80;;;;;;4971286;28;20169;-72
2022/10/13 01:56:37;;;;;;;10.32;4.10;;;9.10;92.90;;;;;;4968635;28;20581;-73
2022/10/13 01:59:11;;;;;;;6.00;4.03;;;9.10;93.00;;;;;;4967862;28;20120;-72
2022/10/13 02:01:45;;;;;;;9.35;3.90;;;9.10;93.10;;;;;;4975492;28;20058;-73
2022/10/13 02:04:21;;;;;;;9.82;4.43;;;9.10;93.20;;;;;;4953096;28;20073;-73
2022/10/13 02:06:56;;;;;;;7.40;3.88;;;9.10;93.30;;;;;;4970423;28;20041;-67
2022/10/13 02:09:25;;;;;;;12.57;4.10;;;9.10;93.20;;;;;;4959086;28;20032;-68
2022/10/13 02:11:59;;;;;;;9.68;4.35;;;9.20;93.30;;;;;;4964033;28;20453;-68
2022/10/13 02:14:33;;;;;;;7.70;3.85;;;9.10;93.20;;;;;;4973608;28;20080;-67
2022/10/13 02:17:02;;;;;;;9.73;4.00;;;9.20;93.00;;;;;;4977057;28;20173;-73
2022/10/13 02:19:31;;;;;;;7.47;3.70;;;9.10;93.00;;;;;;4964796;28;20031;-73
2022/10/13 02:21:57;;;;;;;8.93;3.60;;;9.00;93.00;;;;;;4970907;28;20560;-73
2022/10/13 02:24:23;;;;;;;9.13;4.50;;;9.00;93.10;;;;;;4969269;28;20038;-73
2022/10/13 02:26:50;;;;;;;8.55;3.65;;;9.00;93.20;;;;;;4964597;28;20023;-73
2022/10/13 02:29:18;;;;;;;7.65;3.75;;;9.00;93.10;;;;;;4970210;28;20054;-72
2022/10/13 02:31:45;;;;;;;11.50;4.15;;;9.00;93.00;;;;;;4966923;28;20676;-73
2022/10/13 02:34:11;;;;;;;8.07;4.63;;;9.00;93.00;;;;;;4969554;28;20038;-72
2022/10/13 02:36:38;;;;;;;9.82;4.18;;;9.00;93.20;;;;;;4971358;28;20084;-72
2022/10/13 02:39:05;;;;;;;5.93;3.83;;;9.00;92.80;;;;;;4969350;28;20073;-72
2022/10/13 02:41:31;;;;;;;10.70;4.53;;;8.90;92.80;;;;;;4964060;28;20049;-72
2022/10/13 02:43:57;;;;;;;10.13;4.32;;;8.90;92.80;;;;;;4971142;28;20031;-71
2022/10/13 02:46:26;;;;;;;7.53;4.03;;;8.90;93.20;;;;;;4966714;28;20041;-72
2022/10/13 02:48:52;;;;;;;8.00;4.00;;;8.80;92.90;;;;;;4964809;28;20031;-72
2022/10/13 02:51:18;;;;;;;11.18;4.15;;;8.80;93.10;;;;;;4971972;28;20042;-72
2022/10/13 02:53:43;;;;;;;7.72;3.72;;;8.80;93.20;;;;;;4972008;28;20041;-72
2022/10/13 02:56:09;;;;;;;15.70;4.68;;;8.80;93.20;;;;;;4966850;28;20102;-72
2022/10/13 02:58:36;;;;;;;10.52;4.97;;;8.80;93.30;;;;;;4971825;28;20038;-73
2022/10/13 03:01:13;;;;;;;5.35;4.22;;;8.80;93.40;;;;;;4965569;28;20038;-72
2022/10/13 03:03:39;;;;;;;8.30;4.22;;;8.80;93.30;;;;;;4965533;28;20115;-72
2022/10/13 03:06:06;;;;;;;8.48;3.65;;;8.80;93.40;;;;;;4969579;28;20051;-72
2022/10/13 03:08:33;;;;;;;8.48;4.35;;;8.80;93.50;;;;;;4964641;28;20042;-72
2022/10/13 03:10:58;;;;;;;12.38;4.75;;;8.80;93.60;;;;;;4969060;28;20027;-72
2022/10/13 03:13:24;;;;;;;9.65;4.03;;;8.80;93.70;;;;;;4972197;28;20038;-72
2022/10/13 03:15:50;;;;;;;7.40;4.38;;;8.80;93.70;;;;;;4971339;28;20043;-72
2022/10/13 03:18:16;;;;;;;11.00;4.90;;;8.80;93.70;;;;;;4964745;28;20030;-72
2022/10/13 03:20:41;;;;;;;8.00;4.50;;;8.80;93.80;;;;;;4969271;28;20042;-72
2022/10/13 03:23:07;;;;;;;11.77;5.18;;;8.90;93.80;;;;;;4965673;28;20038;-67
2022/10/13 03:25:34;;;;;;;7.43;4.38;;;8.90;93.90;;;;;;4967832;28;20054;-67
2022/10/13 03:27:59;;;;;;;9.38;5.35;;;9.00;93.80;;;;;;4973188;28;20093;-67
2022/10/13 03:30:25;;;;;;;9.95;4.45;;;9.00;93.90;;;;;;4977288;28;20600;-71
2022/10/13 03:32:51;;;;;;;9.18;4.60;;;9.00;93.90;;;;;;4969210;28;20533;-72
2022/10/13 03:35:17;;;;;;;10.38;4.88;;;9.10;93.80;;;;;;4971780;28;20038;-72
2022/10/13 03:37:43;;;;;;;8.23;4.97;;;9.10;93.80;;;;;;4968764;28;20027;-72
2022/10/13 03:40:09;;;;;;;11.18;5.45;;;9.10;93.70;;;;;;4968772;28;20089;-72
2022/10/13 03:42:36;;;;;;;10.90;4.82;;;9.20;93.60;;;;;;4968629;28;20070;-72
2022/10/13 03:45:03;;;;;;;12.05;5.45;;;9.20;93.50;;;;;;4964645;28;20045;-72
2022/10/13 03:47:35;;;;;;;9.68;4.90;;;9.20;93.60;;;;;;4967467;28;20030;-72
2022/10/13 03:50:02;;;;;;;11.32;5.25;;;9.20;93.60;;;;;;4965057;28;20057;-72
2022/10/13 03:52:28;;;;;;;10.07;4.63;;;9.30;93.40;;;;;;4973646;28;20046;-72
2022/10/13 03:54:54;;;;;;;10.18;5.07;;;9.30;93.40;;;;;;4967117;28;20136;-71
2022/10/13 03:57:20;;;;;;;9.80;5.15;;;9.30;93.50;;;;;;4974410;28;20165;-72
2022/10/13 03:59:46;;;;;;;10.88;4.97;;;9.30;93.50;;;;;;4967708;28;20038;-72
2022/10/13 04:02:11;;;;;;;8.20;4.95;;;9.30;93.60;;;;;;4969523;28;20084;-72
2022/10/13 04:04:37;;;;;;;10.07;4.78;;;9.30;93.60;;;;;;4973876;28;20046;-72
2022/10/13 04:07:03;;;;;;;10.00;5.43;;;9.40;93.60;;;;;;4968684;28;20101;-67
2022/10/13 04:09:29;;;;;;;9.90;5.00;;;9.40;93.50;;;;;;4976042;28;20034;-67
2022/10/13 04:11:55;;;;;;;8.95;5.25;;;9.40;93.30;;;;;;4975491;28;20053;-67
2022/10/13 04:14:21;;;;;;;12.27;5.53;;;9.50;93.30;;;;;;4971124;28;20550;-67
2022/10/13 04:16:47;;;;;;;7.97;5.00;;;9.50;93.30;;;;;;4970843;28;20838;-67
2022/10/13 04:19:14;;;;;;;9.38;4.80;;;9.50;93.30;;;;;;4972438;28;20037;-67
2022/10/13 04:21:41;;;;;;;8.32;4.88;;;9.50;93.40;;;;;;4966487;28;20777;-67
2022/10/13 04:24:08;;;;;;;11.50;5.25;;;9.50;93.40;;;;;;4972245;28;20551;-67
2022/10/13 04:26:35;;;;;;;12.55;5.47;;;9.50;93.40;;;;;;4972697;28;20049;-67
2022/10/13 04:29:09;;;;;;;9.77;5.40;;;9.60;93.40;;;;;;4979686;28;20034;-67
2022/10/13 04:31:36;;;;;;;10.70;4.72;;;9.60;93.50;;;;;;4972803;28;20030;-68
2022/10/13 04:34:01;;;;;;;8.57;4.80;;;9.60;93.50;;;;;;4976781;28;20041;-67
2022/10/13 04:36:27;;;;;;;11.25;5.90;;;9.60;93.50;;;;;;4967135;28;20026;-67
2022/10/13 04:38:54;;;;;;;8.60;5.28;;;9.60;93.40;;;;;;4969952;28;20041;-67
2022/10/13 04:41:20;;;;;;;11.45;5.40;;;9.60;93.20;;;;;;4975203;28;20034;-67
2022/10/13 04:43:48;;;;;;;11.57;4.88;;;9.60;93.20;;;;;;4969714;28;21083;-67
2022/10/13 04:46:17;;;;;;;11.68;5.03;;;9.60;93.20;;;;;;4978555;28;20465;-67
2022/10/13 04:48:44;;;;;;;8.63;5.18;;;9.60;93.10;;;;;;4978150;28;20035;-67
2022/10/13 04:51:16;;;;;;;12.63;6.13;;;9.60;93.10;;;;;;4976288;28;20046;-67
2022/10/13 04:53:42;;;;;;;8.73;5.03;;;9.60;93.00;;;;;;4973946;28;20058;-67
2022/10/13 04:56:14;;;;;;;10.82;5.05;;;9.60;93.20;;;;;;4973522;28;20666;-67
2022/10/13 04:58:41;;;;;;;9.55;5.22;;;9.50;93.00;;;;;;4970053;28;20030;-67
2022/10/13 05:01:10;;;;;;;8.40;5.22;;;9.50;93.10;;;;;;4974959;28;20483;-67
2022/10/13 05:03:36;;;;;;;12.40;5.68;;;9.50;93.20;;;;;;4973646;28;20855;-67
2022/10/13 05:06:02;;;;;;;10.38;6.00;;;9.50;93.40;;;;;;4971852;28;20038;-68
2022/10/13 05:08:28;;;;;;;11.68;5.30;;;9.50;93.40;;;;;;4976607;28;20037;-67
2022/10/13 05:11:01;;;;;;;10.82;5.13;;;9.60;93.40;;;;;;4975168;28;20035;-67
2022/10/13 05:13:28;;;;;;;9.20;4.70;;;9.60;93.40;;;;;;4969608;28;20041;-67
2022/10/13 05:15:56;;;;;;;9.93;6.50;;;9.60;93.30;;;;;;4970096;28;20038;-67
2022/10/13 05:18:22;;;;;;;8.52;5.90;;;9.60;93.30;;;;;;4973177;28;20041;-67
2022/10/13 05:20:48;;;;;;;14.00;5.85;;;9.60;93.10;;;;;;4969193;28;20062;-67
2022/10/13 05:23:14;;;;;;;11.00;6.13;;;9.60;93.10;;;;;;4976331;28;20132;-67
2022/10/13 05:25:40;;;;;;;13.85;6.72;;;9.60;93.10;;;;;;4977881;28;20050;-67
2022/10/13 05:28:09;;;;;;;10.35;5.65;;;9.50;93.10;;;;;;4968565;28;20092;-67
2022/10/13 05:30:35;;;;;;;12.73;5.88;;;9.50;93.10;;;;;;4960094;28;20047;-67
2022/10/13 05:33:01;;;;;;;10.85;5.88;;;9.50;93.10;;;;;;4972664;28;20785;-67
2022/10/13 05:35:27;;;;;;;9.18;5.97;;;9.50;93.20;;;;;;4968365;28;20073;-67
2022/10/13 05:37:52;;;;;;;14.05;5.80;;;9.40;93.20;;;;;;4974842;28;20506;-67
2022/10/13 05:40:21;;;;;;;11.48;6.20;;;9.40;93.10;;;;;;4971279;28;20023;-67
2022/10/13 05:42:52;;;;;;;10.35;5.72;;;9.40;93.20;;;;;;4968236;28;20483;-67
2022/10/13 05:45:20;;;;;;;12.95;6.65;;;9.40;93.20;;;;;;4971853;28;20554;-67
2022/10/13 05:47:46;;;;;;;10.85;5.75;;;9.40;93.30;;;;;;4977759;28;20022;-67
2022/10/13 05:50:11;;;;;;;8.88;5.68;;;9.30;93.20;;;;;;4969901;28;20027;-67
2022/10/13 05:52:39;;;;;;;12.65;5.97;;;9.30;93.40;;;;;;4973875;28;20071;-67
2022/10/13 05:55:08;;;;;;;12.18;7.00;;;9.30;93.50;;;;;;4971376;28;20142;-66
2022/10/13 05:57:40;;;;;;;16.80;6.72;;;9.30;93.60;;;;;;4970604;28;20303;-67
2022/10/13 06:00:14;;;;;;;16.88;7.00;;;9.30;93.60;;;;;;4959851;28;20125;-67
2022/10/13 06:02:52;;;;;;;11.48;6.45;;;9.30;93.70;;;;;;4975073;28;20042;-67
2022/10/13 06:05:20;;;;;;;11.35;6.07;;;9.30;93.90;;;;;;4964756;28;20033;-67
2022/10/13 06:07:49;;;;;;;9.63;6.55;;;9.30;94.00;;;;;;4975186;28;20738;-67
2022/10/13 06:10:15;;;;;;;10.25;5.95;;;9.40;94.20;;;;;;4970608;28;20041;-67
2022/10/13 06:12:41;;;;;;;9.80;5.47;;;9.40;94.30;;;;;;4973146;28;20045;-67
2022/10/13 06:15:07;;;;;;;14.10;6.75;;;9.50;94.30;;;;;;4973806;28;20791;-67
2022/10/13 06:17:36;;;;;;;11.55;6.90;;;9.50;94.40;;;;;;4966743;28;20027;-67
2022/10/13 06:20:04;;;;;;;8.90;6.47;;;9.60;94.40;;;;;;4973164;28;20045;-67
2022/10/13 06:22:32;;;;;;;12.98;6.28;;;9.60;94.30;;;;;;4976257;28;20634;-67
2022/10/13 06:24:57;;;;;;;12.05;6.47;;;9.60;94.40;;;;;;4974781;28;20050;-67
2022/10/13 06:27:23;;;;;;;14.60;7.10;;;9.70;94.40;;;;;;4966977;28;20105;-67
2022/10/13 06:29:52;;;;;;;15.35;6.70;;;9.70;94.50;;;;;;4976780;28;20057;-67
2022/10/13 06:32:18;;;;;;;14.88;6.85;;;9.80;94.40;;;;;;4969594;28;20035;-67
2022/10/13 06:34:44;;;;;;;8.60;5.93;;;9.90;94.70;;;;;;4965802;28;20033;-67
2022/10/13 06:37:09;;;;;;;20.40;7.57;;;9.90;94.30;;;;;;4972492;28;20106;-68
2022/10/13 06:39:35;;;;;;;15.73;7.07;;;10.00;94.20;;;;;;4974603;28;20557;-67
2022/10/13 06:42:03;;;;;;;12.35;6.90;;;10.00;94.00;;;;;;4972223;28;20039;-67
2022/10/13 06:44:32;;;;;;;11.40;6.18;;;10.10;93.90;;;;;;4974141;28;20033;-67
2022/10/13 06:47:02;;;;;;;10.45;6.18;;;10.20;93.80;;;;;;4971618;28;20098;-69
2022/10/13 06:49:28;;;;;;;12.70;6.80;;;10.30;93.80;;;;;;4968839;28;20161;-66
2022/10/13 06:51:53;;;;;;;13.68;6.90;;;10.30;93.70;;;;;;4973118;28;20026;-67
2022/10/13 06:54:19;;;;;;;12.02;6.85;;;10.40;93.50;;;;;;4969773;28;20039;-67
2022/10/13 06:56:45;;;;;;;12.38;6.22;;;10.50;93.50;;;;;;4978403;28;20041;-67
2022/10/13 06:59:11;;;;;;;13.75;7.78;;;10.60;93.50;;;;;;4972262;28;20034;-68
2022/10/13 07:01:38;;;;;;;13.85;6.85;;;10.60;93.40;;;;;;4974225;28;20026;-67
2022/10/13 07:04:07;;;;;;;11.90;6.05;;;10.70;93.30;;;;;;4972033;28;20118;-67
2022/10/13 07:06:33;;;;;;;12.13;6.57;;;10.70;93.00;;;;;;4977994;28;20069;-67
2022/10/13 07:09:04;;;;;;;11.23;5.95;;;10.80;93.00;;;;;;4978371;28;20066;-67
2022/10/13 07:11:29;;;;;;;13.10;6.43;;;10.80;92.90;;;;;;4966212;28;20125;-66
2022/10/13 07:13:58;;;;;;;13.95;7.18;;;10.90;93.00;;;;;;4974548;28;20027;-72
2022/10/13 07:16:24;;;;;;;10.02;5.90;;;10.90;92.80;;;;;;4970115;28;20590;-66
2022/10/13 07:18:49;;;;;;;13.63;6.05;;;11.00;92.90;;;;;;4976615;28;20034;-71
2022/10/13 07:21:15;;;;;;;12.15;6.35;;;11.00;92.90;;;;;;4975685;28;20036;-70
2022/10/13 07:23:41;;;;;;;14.50;7.28;;;11.10;92.90;;;;;;4971591;28;20554;-71
2022/10/13 07:26:09;;;;;;;13.23;7.13;;;11.20;92.90;;;;;;4973766;28;20048;-70
2022/10/13 07:28:35;;;;;;;14.10;7.55;;;11.30;92.90;;;;;;4970787;28;20055;-71
2022/10/13 07:31:10;;;;;;;15.65;7.55;;;11.30;92.90;;;;;;4971023;28;20221;-69
2022/10/13 07:33:36;;;;;;;15.93;7.53;;;11.50;93.00;;;;;;4975597;28;20060;-68
2022/10/13 07:36:03;;;;;;;14.38;7.63;;;11.60;92.80;;;;;;4975334;28;20035;-69
2022/10/13 07:38:29;;;;;;;16.23;7.95;;;11.70;92.60;;;;;;4982788;28;20462;-68
2022/10/13 07:40:55;;;;;;;15.27;7.78;;;11.80;92.40;;;;;;4975920;28;20041;-63
2022/10/13 07:43:20;;;;;;;15.70;8.55;;;11.90;92.20;;;;;;4978929;28;20118;-68
2022/10/13 07:45:46;;;;;;;19.35;8.82;;;12.00;92.00;;;;;;4970795;28;20035;-63
2022/10/13 07:48:12;;;;;;;12.75;7.18;;;12.10;92.00;;;;;;4969412;28;20045;-69
2022/10/13 07:50:38;;;;;;;15.00;8.57;;;12.30;91.90;;;;;;4979896;28;20053;-70
2022/10/13 07:53:03;;;;;;;12.30;7.90;;;12.50;91.80;;;;;;4973816;28;20085;-63
2022/10/13 07:55:29;;;;;;;13.02;7.53;;;12.70;91.40;;;;;;4974146;28;20033;-63
2022/10/13 07:57:55;;;;;;;15.25;7.35;;;12.90;90.80;;;;;;4974090;28;20022;-70
2022/10/13 08:00:21;;;;;;;10.02;6.72;;;13.00;90.60;;;;;;4972509;28;20447;-69
2022/10/13 08:02:50;;;;;;;11.57;7.55;;;13.10;90.70;;;;;;4973184;28;20067;-68
2022/10/13 08:05:16;;;;;;;16.90;8.85;;;13.20;90.40;;;;;;4973098;28;20035;-68
2022/10/13 08:07:41;;;;;;;21.15;9.10;;;13.20;90.50;;;;;;4979054;28;20030;-69
2022/10/13 08:10:08;;;;;;;17.40;7.60;;;13.30;90.40;;;;;;4981226;28;20042;-68
2022/10/13 08:12:35;;;;;;;17.52;8.10;;;13.30;90.50;;;;;;4973034;28;20039;-69
2022/10/13 08:15:02;;;;;;;15.70;7.97;;;13.30;90.50;;;;;;4975910;28;20050;-68
2022/10/13 08:17:28;;;;;;;14.68;8.48;;;13.40;90.40;;;;;;4976936;28;20921;-69
2022/10/13 08:19:54;;;;;;;17.90;8.32;;;13.50;90.40;;;;;;4979852;28;20121;-63
2022/10/13 08:22:23;;;;;;;14.50;7.53;;;13.50;90.30;;;;;;4973822;28;20022;-63
2022/10/13 08:24:48;;;;;;;14.60;7.40;;;13.60;90.20;;;;;;4974955;28;20027;-63
2022/10/13 08:27:20;;;;;;;17.02;7.40;;;13.70;90.20;;;;;;4963219;28;20064;-68
2022/10/13 08:29:46;;;;;;;16.83;8.68;;;13.70;90.20;;;;;;4973974;28;20034;-68
2022/10/13 08:32:12;;;;;;;18.45;8.38;;;13.80;90.10;;;;;;4977053;28;20057;-69
2022/10/13 08:34:37;;;;;;;19.42;7.95;;;13.90;90.00;;;;;;4978169;28;20518;-68
2022/10/13 08:37:04;;;;;;;18.48;8.07;;;14.00;89.80;;;;;;4960345;28;20034;-71
2022/10/13 08:39:30;;;;;;;14.63;8.05;;;14.00;89.70;;;;;;4957357;28;20048;-69
2022/10/13 08:41:56;;;;;;;12.27;6.78;;;14.00;89.80;;;;;;4975443;28;20035;-69
2022/10/13 08:44:31;;;;;;;10.60;6.38;;;14.10;90.10;;;;;;4969044;28;20035;-69
2022/10/13 08:47:01;;;;;;;15.23;7.90;;;14.20;90.20;;;;;;4977460;28;20030;-69
2022/10/13 08:49:28;;;;;;;12.50;7.35;;;14.40;90.00;;;;;;4971968;28;20034;-69
2022/10/13 08:51:55;;;;;;;14.73;7.63;;;14.40;89.50;;;;;;4966659;28;20092;-63
2022/10/13 08:54:24;;;;;;;15.50;8.35;;;14.50;89.40;;;;;;4977152;28;20402;-63
2022/10/13 08:56:51;;;;;;;13.77;7.75;;;14.60;89.10;;;;;;4975256;28;20114;-63
2022/10/13 08:59:18;;;;;;;10.95;7.47;;;14.60;88.70;;;;;;4971544;28;20093;-65
2022/10/13 09:01:47;;;;;;;12.85;7.68;;;14.70;88.80;;;;;;4971119;28;20049;-63
2022/10/13 09:04:39;;;;;;;15.63;8.05;;;14.80;88.60;;;;;;4973537;28;20041;-64
2022/10/13 09:07:08;;;;;;;18.92;7.85;;;14.90;88.30;;;;;;4970687;28;20483;-63
2022/10/13 09:09:35;;;;;;;15.68;7.68;;;14.90;88.20;;;;;;4976160;28;20433;-64
2022/10/13 09:12:02;;;;;;;18.50;8.45;;;15.00;88.40;;;;;;4979325;28;20045;-63
2022/10/13 09:14:34;;;;;;;18.00;8.95;;;15.10;88.00;;;;;;4971538;28;20050;-63
2022/10/13 09:17:23;;;;;;;15.27;8.65;;;15.20;88.10;;;;;;4972475;28;20137;-63
2022/10/13 09:20:03;;;;;;;22.13;9.48;;;15.30;87.70;;;;;;4970326;28;20487;-61
2022/10/13 09:22:34;;;;;;;16.95;9.23;;;15.50;86.60;;;;;;4968850;28;20086;-63
2022/10/13 09:25:05;;;;;;;17.55;8.82;;;15.50;86.80;;;;;;4971748;28;20053;-63
2022/10/13 09:27:46;;;;;;;14.10;8.18;;;15.60;86.90;;;;;;4954192;28;20027;-63
2022/10/13 09:30:37;;;;;;;15.52;8.07;;;15.70;87.20;;;;;;4976900;28;20046;-63
2022/10/13 09:33:11;;;;;;;13.77;8.35;;;15.90;85.80;;;;;;4965436;28;20095;-63
2022/10/13 09:35:43;;;;;;;14.23;8.35;;;15.90;85.20;;;;;;4966364;28;20030;-65
2022/10/13 09:38:15;;;;;;;16.20;8.38;;;15.90;85.20;;;;;;4969036;28;20298;-65
2022/10/13 09:40:43;;;;;;;12.73;8.23;;;16.10;86.40;;;;;;4962774;28;20023;-65
2022/10/13 09:43:27;;;;;;;21.17;8.85;;;16.20;85.00;;;;;;4972437;28;20112;-64
2022/10/13 09:45:53;;;;;;;20.63;8.23;;;16.60;84.70;;;;;;4974666;28;20700;-64
2022/10/13 09:48:25;;;;;;;15.63;8.13;;;16.90;83.10;;;;;;4970822;28;20022;-63
2022/10/13 09:50:53;;;;;;;13.68;7.95;;;17.20;82.40;;;;;;4971605;28;20039;-64
2022/10/13 09:53:25;;;;;;;15.50;9.38;;;17.40;81.70;;;;;;4971118;28;20057;-63
2022/10/13 09:56:47;;;;;;;19.95;10.88;;;17.40;81.90;;;;;;4969250;28;20033;-63
2022/10/13 09:59:35;;;;;;;17.52;8.60;;;17.40;81.80;;;;;;4867713;29;20565;-69
2022/10/13 10:02:42;;;;;;;16.48;9.35;;;17.50;81.70;;;;;;4962774;28;20700;-67
2022/10/13 10:05:23;;;;;;;25.08;10.82;;;17.70;82.20;;;;;;4947283;28;20528;-68
2022/10/13 10:08:15;;;;;;;20.58;12.45;;;17.90;81.40;;;;;;4973180;28;20034;-68
2022/10/13 10:10:42;;;;;;;18.15;9.48;;;17.90;80.90;;;;;;4974311;28;20047;-68
2022/10/13 10:13:12;;;;;;;18.70;10.57;;;18.00;79.70;;;;;;4969621;28;20609;-69
2022/10/13 10:15:44;;;;;;;18.15;9.77;;;18.00;79.60;;;;;;4973781;28;20028;-68
2022/10/13 10:18:20;;;;;;;16.42;8.60;;;18.30;79.60;;;;;;4969841;28;20403;-70
2022/10/13 10:21:11;;;;;;;17.45;8.48;;;19.30;75.90;;;;;;4970050;28;20058;-68
2022/10/13 10:23:42;;;;;;;17.35;8.95;;;20.20;72.70;;;;;;4953876;28;20037;-69
2022/10/13 10:26:22;;;;;;;49.78;11.70;;;21.10;69.30;;;;;;4970374;28;20842;-69
2022/10/13 10:29:18;;;;;;;24.65;8.95;;;21.80;67.60;;;;;;4970152;28;20651;-69
2022/10/13 10:31:52;;;;;;;16.15;7.60;;;22.20;62.90;;;;;;4970567;28;20169;-64
2022/10/13 10:34:52;;;;;;;16.30;6.95;;;21.80;62.60;;;;;;4971130;28;20038;-66
2022/10/13 10:37:37;;;;;;;17.95;6.45;;;21.60;63.30;;;;;;4943169;28;20550;-69
2022/10/13 10:40:11;;;;;;;10.98;5.75;;;21.20;63.80;;;;;;4966407;28;20030;-64
2022/10/13 10:43:10;;;;;;;14.98;7.38;;;20.60;66.20;;;;;;4973279;28;20070;-64
2022/10/13 10:45:39;;;;;;;12.00;6.00;;;20.00;68.50;;;;;;4972587;28;20569;-64
2022/10/13 10:48:20;;;;;;;13.50;5.53;;;19.50;70.60;;;;;;4970925;28;20034;-64
2022/10/13 10:50:47;;;;;;;12.90;5.50;;;19.20;70.60;;;;;;4970514;28;20043;-64
2022/10/13 10:53:29;;;;;;;10.00;5.57;;;18.70;71.20;;;;;;4971150;28;20030;-64
2022/10/13 10:56:26;;;;;;;13.20;7.43;;;18.40;73.80;;;;;;4971268;28;20451;-64
2022/10/13 10:59:35;;;;;;;14.65;7.13;;;18.20;74.50;;;;;;4975232;28;20027;-68
2022/10/13 11:02:07;;;;;;;25.35;11.18;;;18.10;75.40;;;;;;4967462;28;20047;-70
2022/10/13 11:04:45;;;;;;;18.38;9.13;;;18.00;75.70;;;;;;4976551;28;20026;-69
2022/10/13 11:07:23;;;;;;;11.38;5.95;;;18.00;75.70;;;;;;4977441;28;20757;-68
2022/10/13 11:09:51;;;;;;;11.18;6.32;;;18.00;75.40;;;;;;4978824;28;20401;-73
2022/10/13 11:12:20;;;;;;;12.77;6.55;;;18.00;76.50;;;;;;4979783;28;20038;-69
2022/10/13 11:15:01;;;;;;;14.60;7.03;;;17.90;76.50;;;;;;4964398;28;20734;-69
2022/10/13 11:17:37;;;;;;;14.60;7.45;;;17.90;76.20;;;;;;4967173;28;20059;-69
2022/10/13 11:20:21;;;;;;;13.45;6.80;;;17.90;77.30;;;;;;4977535;28;20042;-70
2022/10/13 11:22:58;;;;;;;13.10;6.38;;;17.90;76.80;;;;;;4975224;28;20057;-75
2022/10/13 11:25:47;;;;;;;14.18;7.50;;;17.90;77.00;;;;;;4974291;28;20125;-69
2022/10/13 11:28:22;;;;;;;17.85;7.65;;;18.00;76.50;;;;;;4978049;28;20248;-66
2022/10/13 11:30:51;;;;;;;14.38;5.90;;;18.00;76.60;;;;;;4970521;28;20077;-65
2022/10/13 11:33:51;;;;;;;12.55;5.72;;;18.00;75.60;;;;;;4973863;28;20137;-66
2022/10/13 11:36:35;;;;;;;12.35;6.55;;;18.00;75.20;;;;;;4976342;28;20130;-66
2022/10/13 11:39:20;;;;;;;19.67;10.95;;;18.00;75.00;;;;;;4969112;28;20031;-66
2022/10/13 11:41:54;;;;;;;14.85;6.70;;;18.10;75.60;;;;;;4977382;28;20035;-66
2022/10/13 11:44:28;;;;;;;14.00;7.03;;;18.20;73.20;;;;;;4977297;28;20080;-66
2022/10/13 11:46:54;;;;;;;10.27;5.45;;;18.20;74.20;;;;;;4969243;28;20734;-66
2022/10/13 11:49:38;;;;;;;14.50;6.65;;;18.30;72.20;;;;;;4971748;28;20119;-66
2022/10/13 11:52:36;;;;;;;14.18;5.95;;;18.30;73.30;;;;;;4973425;28;20141;-67
2022/10/13 11:55:11;;;;;;;15.50;7.28;;;18.40;73.50;;;;;;4977558;28;20038;-72
2022/10/13 11:57:37;;;;;;;20.15;7.75;;;18.50;72.50;;;;;;4975698;28;20079;-79
2022/10/13 12:00:03;;;;;;;20.40;10.40;;;18.40;71.90;;;;;;4979712;28;20035;-72
2022/10/13 12:02:48;;;;;;;25.40;9.82;;;18.40;72.20;;;;;;4975447;28;20061;-72
2022/10/13 12:05:18;;;;;;;11.77;7.63;;;18.40;72.60;;;;;;4976084;28;20049;-70
2022/10/13 12:07:46;;;;;;;14.10;7.78;;;18.40;72.20;;;;;;4974380;28;20031;-72
2022/10/13 12:10:42;;;;;;;12.60;7.70;;;18.30;73.10;;;;;;4976671;28;20054;-72
2022/10/13 12:13:20;;;;;;;14.73;7.88;;;18.30;72.40;;;;;;4958550;28;20602;-72
2022/10/13 12:15:46;;;;;;;13.02;7.50;;;18.30;73.40;;;;;;4975724;28;20944;-72
2022/10/13 12:18:28;;;;;;;12.90;7.85;;;18.30;73.20;;;;;;4976688;28;20777;-72
2022/10/13 12:20:57;;;;;;;11.15;6.20;;;18.20;72.30;;;;;;4973652;28;20031;-73
2022/10/13 12:23:24;;;;;;;13.57;5.50;;;18.20;72.70;;;;;;4975960;28;20050;-72
2022/10/13 12:25:58;;;;;;;9.07;6.18;;;18.10;74.00;;;;;;4974788;28;20517;-75
2022/10/13 12:28:41;;;;;;;7.72;5.15;;;18.20;74.90;;;;;;4973422;28;20141;-66
2022/10/13 12:31:21;;;;;;;11.50;5.50;;;18.20;74.50;;;;;;4971963;28;20058;-69
2022/10/13 12:33:58;;;;;;;13.07;6.80;;;18.30;74.80;;;;;;4974618;28;20538;-67
2022/10/13 12:36:26;;;;;;;17.02;7.20;;;18.40;73.30;;;;;;4970963;28;20062;-67
2022/10/13 12:38:54;;;;;;;11.07;6.85;;;18.40;73.60;;;;;;4971368;28;20569;-74
2022/10/13 12:41:29;;;;;;;13.13;7.03;;;18.40;73.00;;;;;;4976858;28;20176;-66
2022/10/13 12:43:55;;;;;;;13.80;8.55;;;18.40;73.60;;;;;;4956233;28;20039;-68
2022/10/13 12:46:35;;;;;;;15.93;7.53;;;18.50;74.30;;;;;;4971805;28;20061;-68
2022/10/13 12:49:12;;;;;;;18.45;8.85;;;18.40;73.70;;;;;;4973180;28;20038;-68
2022/10/13 12:51:38;;;;;;;16.67;8.60;;;18.50;72.50;;;;;;4967606;28;20481;-67
2022/10/13 12:54:31;;;;;;;11.23;6.30;;;18.40;73.80;;;;;;4971911;28;20113;-68
2022/10/13 12:57:00;;;;;;;9.93;5.90;;;18.50;74.40;;;;;;4950828;28;20042;-68
2022/10/13 12:59:27;;;;;;;8.45;5.60;;;18.50;73.90;;;;;;4971572;28;20782;-67
2022/10/13 13:01:59;;;;;;;13.82;5.40;;;18.40;73.90;;;;;;4976779;28;20129;-70
2022/10/13 13:04:37;;;;;;;12.40;5.50;;;18.50;74.20;;;;;;4973659;28;20564;-69
2022/10/13 13:07:04;;;;;;;8.10;4.57;;;18.40;74.20;;;;;;4968888;28;20038;-67